Observations for Trim Patrick St
| Time | AQI | Temp °C | Hum % | Pres Pa | CO μg/m³ | H₂S μg/m³ | NO μg/m³ | NO₂ μg/m³ | O₃ μg/m³ | SO₂ μg/m³ | PM1 μg/m³ | PM2.5 μg/m³ | PM10 μg/m³ |
|---|---|---|---|---|---|---|---|---|---|---|---|---|---|
| Thursday 27 August 2026 | |||||||||||||
| 21:43 | 3 | 17.8 | 86 | 38,460 | 0.12 | 3.44 | 0.93 | 13.99 | 41.22 | 0.02 | 16.57 | 25.48 | 28.02 |
| 21:42 | 3 | 17.8 | 86 | 38,460 | 0.11 | 3.97 | 1.02 | 14.6 | 37.32 | 0.45 | 19.14 | 26.18 | 28.8 |
| 21:41 | 3 | 17.8 | 86 | 38,460 | 0.12 | 3.68 | 0.92 | 16.33 | 37.15 | 0.11 | 18.29 | 27.55 | 27.66 |
| 21:32 | 3 | 17.8 | 86 | 38,460 | 0.1 | 3.63 | 1.55 | 15.36 | 39.57 | 0 | 20 | 28.26 | 28.99 |
| 21:31 | 3 | 17.8 | 86 | 38,460 | 0.1 | 3.47 | 1.55 | 14.09 | 40.62 | 0 | 18.29 | 26.89 | 29.58 |
| 21:30 | 3 | 17.8 | 86 | 38,460 | 0.1 | 3.68 | 1.43 | 13.92 | 39.78 | 0.02 | 18.29 | 26.2 | 28.82 |
| 21:29 | 3 | 17.8 | 86 | 38,460 | 0.1 | 3.37 | 1.17 | 14.52 | 41.99 | 0.11 | 21.72 | 30.33 | 30.97 |
| 21:28 | 3 | 17.8 | 85 | 38,460 | 0.1 | 3.73 | 1.08 | 13.59 | 39.44 | 0.41 | 19.14 | 28.28 | 29.05 |
| 21:27 | 3 | 17.8 | 85 | 38,460 | 0.1 | 3.76 | 0.93 | 14.25 | 39.92 | 0 | 20.86 | 28.97 | 31.87 |
| 21:26 | 3 | 17.8 | 85 | 38,460 | 0.09 | 3.63 | 0.82 | 15.02 | 38.88 | 0 | 19.14 | 28.28 | 28.4 |
| 21:25 | 3 | 17.8 | 85 | 38,460 | 0.09 | 3.5 | 0.78 | 14.06 | 42.72 | 0.08 | 19.14 | 26.22 | 28.84 |
| 21:24 | 3 | 17.8 | 85 | 38,460 | 0.09 | 3.5 | 0.86 | 13.58 | 41.46 | 0 | 18.29 | 27.61 | 28.42 |
| 21:23 | 3 | 17.8 | 85 | 38,460 | 0.1 | 3.08 | 0.82 | 13.87 | 40.26 | 0.36 | 20 | 28.3 | 31.13 |
| 21:22 | 3 | 17.8 | 85 | 38,460 | 0.1 | 3 | 1.08 | 14.46 | 40.3 | 0 | 19.14 | 26.92 | 29.61 |
| 21:21 | 3 | 17.9 | 85 | 38,460 | 0.09 | 2.92 | 1.06 | 13.59 | 41.69 | 0 | 17.43 | 24.18 | 26.59 |
| 21:20 | 3 | 17.8 | 85 | 38,460 | 0.1 | 3.76 | 1.25 | 16.17 | 40.15 | 0 | 20 | 26.24 | 28.87 |
| 21:19 | 3 | 17.9 | 85 | 38,460 | 0.09 | 3.36 | 1.16 | 13.34 | 40.79 | 0.39 | 18.29 | 26.24 | 28.87 |
| 21:18 | 3 | 17.9 | 85 | 38,460 | 0.1 | 3.18 | 1.29 | 13.72 | 40.9 | 0.31 | 18.29 | 27.63 | 30.4 |
| 21:17 | 3 | 17.9 | 85 | 38,460 | 0.08 | 3.57 | 1.21 | 14.55 | 38.87 | 0.12 | 16.57 | 24.87 | 27.35 |
| 21:16 | 3 | 17.9 | 85 | 38,460 | 0.09 | 2.6 | 1.25 | 13.43 | 43.79 | 0 | 19.14 | 26.26 | 28.88 |